Time;durP1;ratioP1;P1;durP2;ratioP2;P2;SDS_P1;SDS_P2;PMS_P1;PMS_P2;Temp;Humidity;BMP_temperature;BMP_pressure;BME280_temperature;BME280_humidity;BME280_pressure;Samples;Min_cycle;Max_cycle;Signal;HPM_P1;HPM_P2
2023/12/08 00:01:29;;;;;;;9.85;5.28;;;;;;;;;;5040032;28;20127;-62
2023/12/08 00:03:55;;;;;;;8.18;6.10;;;;;;;;;;5039325;28;20045;-67
2023/12/08 00:06:20;;;;;;;7.05;5.22;;;;;;;;;;5039877;28;20414;-65
2023/12/08 00:08:46;;;;;;;5.63;4.65;;;;;;;;;;5038764;28;20072;-67
2023/12/08 00:11:11;;;;;;;12.38;7.57;;;;;;;;;;5039300;28;20045;-60
2023/12/08 00:13:36;;;;;;;9.18;6.22;;;;;;;;;;5039505;28;20048;-66
2023/12/08 00:16:03;;;;;;;8.93;5.88;;;;;;;;;;5038715;28;20536;-63
2023/12/08 00:18:28;;;;;;;9.32;6.47;;;;;;;;;;5038686;28;20045;-63
2023/12/08 00:20:54;;;;;;;6.82;4.85;;;;;;;;;;5039145;28;20045;-64
2023/12/08 00:23:19;;;;;;;11.18;6.57;;;;;;;;;;5038739;28;20094;-65
2023/12/08 00:25:45;;;;;;;7.75;5.28;;;;;;;;;;5039561;28;20053;-65
2023/12/08 00:28:10;;;;;;;8.70;5.70;;;;;;;;;;5039685;28;20041;-64
2023/12/08 00:30:35;;;;;;;8.35;5.78;;;;;;;;;;5038527;28;20515;-63
2023/12/08 00:33:02;;;;;;;15.15;9.50;;;;;;;;;;5036734;28;20037;-65
2023/12/08 00:35:28;;;;;;;21.88;6.60;;;;;;;;;;5039629;28;20059;-67
2023/12/08 00:37:54;;;;;;;19.13;11.23;;;;;;;;;;5038974;28;20482;-64
2023/12/08 00:40:19;;;;;;;14.95;8.80;;;;;;;;;;5038739;28;20041;-64
2023/12/08 00:42:45;;;;;;;11.35;7.30;;;;;;;;;;5039223;28;20049;-63
2023/12/08 00:45:10;;;;;;;11.93;6.93;;;;;;;;;;5038280;28;20064;-67
2023/12/08 00:47:35;;;;;;;10.25;5.20;;;;;;;;;;5038085;28;20061;-62
2023/12/08 00:50:01;;;;;;;14.07;6.13;;;;;;;;;;5038305;28;20047;-66
2023/12/08 00:52:26;;;;;;;9.55;6.38;;;;;;;;;;5038085;28;20041;-64
2023/12/08 00:54:52;;;;;;;7.00;4.93;;;;;;;;;;5038251;28;20075;-64
2023/12/08 00:57:17;;;;;;;9.95;6.75;;;;;;;;;;5038633;28;20457;-63
2023/12/08 00:59:42;;;;;;;25.48;10.70;;;;;;;;;;5037301;28;20045;-65
2023/12/08 01:02:08;;;;;;;14.30;6.22;;;;;;;;;;5038435;28;20037;-65
2023/12/08 01:04:34;;;;;;;5.97;5.38;;;;;;;;;;5036830;28;20052;-64
2023/12/08 01:06:59;;;;;;;4.57;4.18;;;;;;;;;;5036431;28;20049;-67
2023/12/08 01:09:25;;;;;;;7.20;4.47;;;;;;;;;;5036384;28;20052;-64
2023/12/08 01:11:50;;;;;;;7.53;4.68;;;;;;;;;;5037199;28;20049;-63
2023/12/08 01:14:16;;;;;;;10.38;5.47;;;;;;;;;;5036549;28;20048;-66
2023/12/08 01:16:42;;;;;;;7.00;4.03;;;;;;;;;;5036548;28;20053;-65
2023/12/08 01:19:09;;;;;;;6.60;4.25;;;;;;;;;;5037575;28;20162;-63
2023/12/08 01:21:38;;;;;;;4.25;3.85;;;;;;;;;;5038294;28;20063;-61
2023/12/08 01:24:04;;;;;;;6.38;4.85;;;;;;;;;;5037893;28;20135;-68
2023/12/08 01:26:30;;;;;;;3.40;2.50;;;;;;;;;;5038179;28;20151;-65
2023/12/08 01:28:55;;;;;;;9.90;6.57;;;;;;;;;;5037475;28;20105;-67
2023/12/08 01:31:21;;;;;;;8.23;4.82;;;;;;;;;;5037712;28;20071;-61
2023/12/08 01:33:47;;;;;;;4.55;3.38;;;;;;;;;;5037834;28;20079;-65
2023/12/08 01:36:13;;;;;;;5.60;4.55;;;;;;;;;;5038491;28;20037;-67
2023/12/08 01:38:38;;;;;;;6.53;4.05;;;;;;;;;;5037382;28;20088;-64
2023/12/08 01:41:04;;;;;;;8.23;5.28;;;;;;;;;;5037467;28;20057;-63
2023/12/08 01:43:29;;;;;;;7.72;4.68;;;;;;;;;;5037794;28;20041;-66
2023/12/08 01:45:56;;;;;;;7.25;4.80;;;;;;;;;;5037956;28;20049;-65
2023/12/08 01:48:23;;;;;;;5.35;3.25;;;;;;;;;;5037905;28;21149;-66
2023/12/08 01:50:49;;;;;;;12.02;5.32;;;;;;;;;;5037581;28;20989;-64
2023/12/08 01:53:14;;;;;;;8.38;4.70;;;;;;;;;;5037947;28;20033;-66
2023/12/08 01:55:40;;;;;;;8.63;6.07;;;;;;;;;;5038113;28;20107;-61
2023/12/08 01:58:07;;;;;;;4.95;4.07;;;;;;;;;;5037885;28;20118;-64
2023/12/08 02:00:32;;;;;;;4.32;3.85;;;;;;;;;;5037168;28;20139;-65
2023/12/08 02:02:58;;;;;;;4.53;3.03;;;;;;;;;;5037357;28;20144;-68
2023/12/08 02:05:25;;;;;;;10.55;7.07;;;;;;;;;;5037464;28;20052;-66
2023/12/08 02:07:52;;;;;;;5.40;3.90;;;;;;;;;;5037529;28;20804;-64
2023/12/08 02:10:19;;;;;;;10.60;6.05;;;;;;;;;;5037011;28;20076;-65
2023/12/08 02:12:44;;;;;;;14.90;8.32;;;;;;;;;;5036601;28;20044;-65
2023/12/08 02:15:12;;;;;;;7.05;5.82;;;;;;;;;;5035489;28;20045;-63
2023/12/08 02:17:38;;;;;;;10.35;7.05;;;;;;;;;;5019927;28;20498;-67
2023/12/08 02:20:06;;;;;;;12.95;7.22;;;;;;;;;;5034042;28;20041;-64
2023/12/08 02:22:33;;;;;;;9.45;6.18;;;;;;;;;;5034835;28;20041;-64
2023/12/08 02:24:58;;;;;;;12.32;6.75;;;;;;;;;;5040582;28;20412;-66
2023/12/08 02:27:24;;;;;;;12.60;7.22;;;;;;;;;;5047105;28;20044;-66
2023/12/08 02:29:50;;;;;;;13.52;7.90;;;;;;;;;;5051613;28;20102;-69
2023/12/08 02:32:31;;;;;;;15.25;6.10;;;;;;;;;;5045868;28;20064;-64
2023/12/08 02:35:01;;;;;;;13.45;9.23;;;;;;;;;;5045245;28;20060;-65
2023/12/08 02:37:31;;;;;;;15.95;8.98;;;;;;;;;;5055263;28;20117;-63
2023/12/08 02:39:57;;;;;;;5.75;3.85;;;;;;;;;;5050670;28;20503;-66
2023/12/08 02:42:23;;;;;;;10.52;6.38;;;;;;;;;;5049882;28;20044;-65
2023/12/08 02:44:48;;;;;;;15.88;9.23;;;;;;;;;;5047788;28;20052;-61
2023/12/08 02:47:13;;;;;;;8.88;6.40;;;;;;;;;;5041611;28;20040;-64
2023/12/08 02:49:39;;;;;;;14.55;7.32;;;;;;;;;;5042234;28;20124;-68
2023/12/08 02:52:05;;;;;;;9.50;6.32;;;;;;;;;;5042407;28;20072;-66
2023/12/08 02:54:30;;;;;;;18.13;7.30;;;;;;;;;;5053003;28;20056;-65
2023/12/08 02:56:55;;;;;;;11.02;6.40;;;;;;;;;;5053551;28;20067;-66
2023/12/08 02:59:21;;;;;;;9.75;7.50;;;;;;;;;;5058307;28;20061;-62
2023/12/08 03:01:46;;;;;;;8.02;5.93;;;;;;;;;;5041270;28;20458;-63
2023/12/08 03:04:11;;;;;;;12.43;7.30;;;;;;;;;;5047124;28;20049;-64
2023/12/08 03:06:37;;;;;;;6.80;5.10;;;;;;;;;;5048679;28;20052;-68
2023/12/08 03:09:04;;;;;;;15.20;5.25;;;;;;;;;;5052137;28;20078;-65
2023/12/08 03:11:29;;;;;;;10.07;6.05;;;;;;;;;;5045401;28;20053;-66
2023/12/08 03:13:54;;;;;;;8.05;5.20;;;;;;;;;;5046784;28;20048;-69
2023/12/08 03:16:20;;;;;;;8.80;5.75;;;;;;;;;;5050392;28;20079;-64
2023/12/08 03:18:45;;;;;;;12.75;7.18;;;;;;;;;;5054588;28;20048;-67
2023/12/08 03:21:22;;;;;;;8.50;4.35;;;;;;;;;;5045820;28;20501;-66
2023/12/08 03:23:48;;;;;;;12.10;7.13;;;;;;;;;;5046078;28;20558;-63
2023/12/08 03:26:14;;;;;;;8.32;4.70;;;;;;;;;;5057641;28;20053;-63
2023/12/08 03:28:39;;;;;;;12.10;7.55;;;;;;;;;;5047185;28;20148;-68
2023/12/08 03:31:04;;;;;;;11.80;7.05;;;;;;;;;;5039697;28;20045;-64
2023/12/08 03:33:30;;;;;;;16.83;5.75;;;;;;;;;;5049289;28;20044;-64
2023/12/08 03:35:55;;;;;;;10.07;5.85;;;;;;;;;;5041562;28;20407;-68
2023/12/08 03:38:21;;;;;;;16.40;9.23;;;;;;;;;;5051213;28;20055;-63
2023/12/08 03:40:46;;;;;;;10.35;6.85;;;;;;;;;;5052179;28;20040;-65
2023/12/08 03:43:11;;;;;;;8.90;6.13;;;;;;;;;;5050739;28;20048;-68
2023/12/08 03:45:37;;;;;;;7.13;3.92;;;;;;;;;;5045441;28;20132;-65
2023/12/08 03:48:02;;;;;;;8.43;5.75;;;;;;;;;;5044914;28;20521;-65
2023/12/08 03:50:28;;;;;;;7.47;4.97;;;;;;;;;;5047956;28;20072;-64
2023/12/08 03:52:54;;;;;;;9.35;5.25;;;;;;;;;;5053502;28;20064;-66
2023/12/08 03:55:21;;;;;;;8.05;4.45;;;;;;;;;;5047115;28;20362;-65
2023/12/08 03:57:47;;;;;;;7.00;3.75;;;;;;;;;;5048431;28;20053;-64
2023/12/08 04:00:13;;;;;;;3.63;3.33;;;;;;;;;;5049158;28;20082;-67
2023/12/08 04:02:38;;;;;;;7.22;3.85;;;;;;;;;;5050262;28;20984;-65
2023/12/08 04:05:04;;;;;;;13.77;5.45;;;;;;;;;;5042098;28;20071;-66
2023/12/08 04:07:29;;;;;;;4.93;3.70;;;;;;;;;;5046950;28;20512;-65
2023/12/08 04:09:55;;;;;;;6.50;4.40;;;;;;;;;;5046639;28;20049;-67
2023/12/08 04:12:21;;;;;;;7.90;4.93;;;;;;;;;;5043507;28;20041;-65
2023/12/08 04:14:46;;;;;;;7.35;4.65;;;;;;;;;;5049374;28;20044;-64
2023/12/08 04:17:12;;;;;;;4.00;3.53;;;;;;;;;;5044822;28;20044;-68
2023/12/08 04:19:37;;;;;;;6.75;4.63;;;;;;;;;;5047298;28;20107;-64
2023/12/08 04:22:03;;;;;;;4.70;3.30;;;;;;;;;;5036798;28;20073;-65
2023/12/08 04:24:29;;;;;;;15.60;6.03;;;;;;;;;;5049596;28;20044;-62
2023/12/08 04:26:54;;;;;;;14.07;6.85;;;;;;;;;;5051857;28;20056;-68
2023/12/08 04:29:19;;;;;;;6.05;4.70;;;;;;;;;;5052981;28;20436;-63
2023/12/08 04:31:45;;;;;;;4.28;3.88;;;;;;;;;;5048031;28;20075;-68
2023/12/08 04:34:10;;;;;;;4.53;4.00;;;;;;;;;;5045947;28;20123;-65
2023/12/08 04:36:36;;;;;;;8.23;5.07;;;;;;;;;;5053591;28;20048;-65
2023/12/08 04:39:01;;;;;;;9.35;6.07;;;;;;;;;;5049706;28;20053;-68
2023/12/08 04:41:26;;;;;;;7.85;6.05;;;;;;;;;;5049214;28;20049;-66
2023/12/08 04:43:52;;;;;;;8.73;4.70;;;;;;;;;;5048360;28;20040;-64
2023/12/08 04:46:18;;;;;;;11.15;6.05;;;;;;;;;;5044482;28;20642;-66
2023/12/08 04:48:43;;;;;;;10.43;6.28;;;;;;;;;;5055086;28;20055;-64
2023/12/08 04:51:09;;;;;;;8.30;5.10;;;;;;;;;;5056619;28;20048;-63
2023/12/08 04:53:34;;;;;;;11.98;6.90;;;;;;;;;;5058330;28;20089;-66
2023/12/08 04:56:00;;;;;;;10.68;6.22;;;;;;;;;;5047258;28;20414;-64
2023/12/08 04:58:25;;;;;;;12.02;7.55;;;;;;;;;;5052117;28;20043;-66
2023/12/08 05:00:51;;;;;;;12.45;7.72;;;;;;;;;;5046555;28;20586;-67
2023/12/08 05:03:16;;;;;;;12.98;8.00;;;;;;;;;;5051525;28;20048;-65
2023/12/08 05:05:42;;;;;;;10.40;6.28;;;;;;;;;;5057853;28;20052;-65
2023/12/08 05:08:07;;;;;;;6.72;4.70;;;;;;;;;;5056026;28;20093;-65
2023/12/08 05:10:33;;;;;;;13.43;7.18;;;;;;;;;;5053806;28;20098;-69
2023/12/08 05:12:59;;;;;;;9.52;6.53;;;;;;;;;;5057032;28;20040;-65
2023/12/08 05:15:24;;;;;;;9.30;6.50;;;;;;;;;;5043989;28;20048;-65
2023/12/08 05:17:50;;;;;;;6.93;5.80;;;;;;;;;;5045355;28;20048;-65
2023/12/08 05:20:16;;;;;;;11.20;6.95;;;;;;;;;;5032498;28;20037;-68
2023/12/08 05:22:42;;;;;;;11.98;7.18;;;;;;;;;;5020853;28;20168;-69
2023/12/08 05:25:09;;;;;;;10.20;6.05;;;;;;;;;;5044191;28;20128;-64
2023/12/08 05:27:34;;;;;;;12.10;6.97;;;;;;;;;;5048450;28;20045;-63
2023/12/08 05:29:59;;;;;;;8.73;4.90;;;;;;;;;;5045247;28;20098;-65
2023/12/08 05:32:25;;;;;;;7.80;5.55;;;;;;;;;;5045901;28;20114;-67
2023/12/08 05:34:50;;;;;;;10.73;6.75;;;;;;;;;;5027763;28;20759;-65
2023/12/08 05:37:16;;;;;;;8.48;5.97;;;;;;;;;;5023457;28;20059;-65
2023/12/08 05:39:41;;;;;;;9.63;7.15;;;;;;;;;;5039260;28;20144;-66
2023/12/08 05:42:06;;;;;;;7.80;5.90;;;;;;;;;;5039072;28;21023;-66
2023/12/08 05:44:32;;;;;;;9.40;5.97;;;;;;;;;;5034599;28;20106;-63
2023/12/08 05:46:57;;;;;;;10.40;7.22;;;;;;;;;;5016585;28;20064;-65
2023/12/08 05:49:22;;;;;;;15.57;8.57;;;;;;;;;;5035667;28;20629;-63
2023/12/08 05:51:48;;;;;;;7.88;4.53;;;;;;;;;;5040192;28;20041;-61
2023/12/08 05:54:13;;;;;;;6.07;4.70;;;;;;;;;;5043264;28;20051;-64
2023/12/08 05:56:39;;;;;;;13.07;4.97;;;;;;;;;;5029413;28;20232;-67
2023/12/08 05:59:05;;;;;;;19.55;3.95;;;;;;;;;;5019902;28;20055;-65
2023/12/08 06:01:31;;;;;;;7.00;5.13;;;;;;;;;;5019921;28;20083;-65
2023/12/08 06:03:56;;;;;;;5.05;4.55;;;;;;;;;;5026515;28;21027;-65
2023/12/08 06:06:22;;;;;;;9.02;5.78;;;;;;;;;;5055813;28;20044;-66
2023/12/08 06:08:47;;;;;;;7.55;4.43;;;;;;;;;;5029990;28;20037;-65
2023/12/08 06:11:12;;;;;;;3.53;2.85;;;;;;;;;;5021115;28;20053;-65
2023/12/08 06:13:38;;;;;;;5.43;4.18;;;;;;;;;;5022406;28;20056;-67
2023/12/08 06:16:04;;;;;;;3.60;2.90;;;;;;;;;;5021876;28;20083;-62
2023/12/08 06:18:30;;;;;;;2.38;1.80;;;;;;;;;;5022605;28;20057;-64
2023/12/08 06:20:55;;;;;;;4.07;2.75;;;;;;;;;;5022201;28;20044;-66
2023/12/08 06:23:20;;;;;;;4.57;3.80;;;;;;;;;;5023193;28;20500;-68
2023/12/08 06:25:46;;;;;;;6.70;4.40;;;;;;;;;;5030868;28;20039;-67
2023/12/08 06:28:12;;;;;;;6.05;3.38;;;;;;;;;;5042990;28;20052;-67
2023/12/08 06:30:38;;;;;;;3.35;2.88;;;;;;;;;;5041697;28;20120;-64
2023/12/08 06:33:03;;;;;;;5.57;3.40;;;;;;;;;;5046829;28;20040;-67
2023/12/08 06:35:29;;;;;;;5.97;3.58;;;;;;;;;;5044511;28;20041;-65
2023/12/08 06:37:54;;;;;;;5.70;3.95;;;;;;;;;;5050341;28;21028;-68
2023/12/08 06:40:20;;;;;;;4.45;3.67;;;;;;;;;;5050726;28;20048;-65
2023/12/08 06:42:45;;;;;;;4.85;3.55;;;;;;;;;;5054549;28;20043;-65
2023/12/08 06:45:10;;;;;;;4.95;3.45;;;;;;;;;;5057862;28;20552;-64
2023/12/08 06:47:36;;;;;;;7.65;4.15;;;;;;;;;;5056747;28;20059;-67
2023/12/08 06:50:01;;;;;;;6.85;4.78;;;;;;;;;;5058759;28;20109;-63
2023/12/08 06:52:27;;;;;;;8.65;4.90;;;;;;;;;;5057032;28;20509;-68
2023/12/08 06:54:52;;;;;;;5.13;3.75;;;;;;;;;;5051089;28;20040;-67
2023/12/08 06:57:17;;;;;;;9.27;4.88;;;;;;;;;;5040572;28;20514;-69
2023/12/08 06:59:43;;;;;;;5.93;4.22;;;;;;;;;;5052359;28;20577;-66
2023/12/08 07:02:08;;;;;;;3.83;3.42;;;;;;;;;;5049502;28;20044;-69
2023/12/08 07:04:33;;;;;;;4.47;3.45;;;;;;;;;;5060115;28;20529;-65
2023/12/08 07:06:59;;;;;;;3.95;3.03;;;;;;;;;;5060260;28;20101;-69
2023/12/08 07:09:24;;;;;;;4.57;3.65;;;;;;;;;;5054188;28;20059;-67
2023/12/08 07:11:50;;;;;;;4.55;3.03;;;;;;;;;;5055206;28;20106;-69
2023/12/08 07:14:15;;;;;;;6.60;4.15;;;;;;;;;;5055114;28;20045;-66
2023/12/08 07:16:44;;;;;;;5.40;3.90;;;;;;;;;;5034010;28;20099;-68
2023/12/08 07:19:09;;;;;;;4.43;3.55;;;;;;;;;;5023870;28;20432;-68
2023/12/08 07:21:41;;;;;;;4.28;3.22;;;;;;;;;;5048025;28;20049;-66
2023/12/08 07:24:06;;;;;;;5.82;2.90;;;;;;;;;;5042839;28;20610;-66
2023/12/08 07:26:32;;;;;;;4.22;2.83;;;;;;;;;;5039158;28;20044;-66
2023/12/08 07:28:57;;;;;;;4.22;3.17;;;;;;;;;;5043044;28;20045;-70
2023/12/08 07:31:23;;;;;;;4.78;3.25;;;;;;;;;;5042353;28;20678;-66
2023/12/08 07:33:49;;;;;;;6.70;3.03;;;;;;;;;;5049278;28;20036;-68
2023/12/08 07:36:14;;;;;;;6.65;3.60;;;;;;;;;;5046892;28;20048;-68
2023/12/08 07:38:39;;;;;;;8.85;4.32;;;;;;;;;;5048446;28;20063;-65
2023/12/08 07:41:06;;;;;;;4.78;3.10;;;;;;;;;;5046671;28;20044;-69
2023/12/08 07:43:31;;;;;;;4.18;2.95;;;;;;;;;;5047632;28;20621;-69
2023/12/08 07:45:57;;;;;;;6.00;3.72;;;;;;;;;;5053892;28;20048;-68
2023/12/08 07:48:22;;;;;;;3.88;3.05;;;;;;;;;;5049130;28;20104;-69
2023/12/08 07:50:48;;;;;;;4.15;2.95;;;;;;;;;;5052954;28;20304;-66
2023/12/08 07:53:13;;;;;;;4.22;2.78;;;;;;;;;;5043681;28;21059;-67
2023/12/08 07:55:39;;;;;;;5.18;2.78;;;;;;;;;;5044000;28;20526;-66
2023/12/08 07:58:04;;;;;;;5.95;3.20;;;;;;;;;;5043743;28;20052;-66
2023/12/08 08:00:30;;;;;;;4.70;3.50;;;;;;;;;;5043121;28;20128;-67
2023/12/08 08:02:55;;;;;;;6.80;3.30;;;;;;;;;;5039300;28;20060;-71
2023/12/08 08:05:21;;;;;;;4.50;3.42;;;;;;;;;;5042773;28;20064;-65
2023/12/08 08:07:46;;;;;;;3.85;3.30;;;;;;;;;;5048831;28;20431;-69
2023/12/08 08:10:12;;;;;;;5.47;3.45;;;;;;;;;;5049948;28;20545;-66
2023/12/08 08:12:37;;;;;;;4.88;3.63;;;;;;;;;;5050647;28;20049;-68
2023/12/08 08:15:04;;;;;;;6.78;3.90;;;;;;;;;;5046114;28;20072;-65
2023/12/08 08:17:29;;;;;;;6.07;3.75;;;;;;;;;;5019417;28;20056;-69
2023/12/08 08:19:55;;;;;;;8.80;4.68;;;;;;;;;;5020576;28;20057;-67
2023/12/08 08:22:20;;;;;;;6.18;4.20;;;;;;;;;;5020592;28;20468;-69
2023/12/08 08:24:46;;;;;;;5.35;3.55;;;;;;;;;;5020380;28;20046;-66
2023/12/08 08:27:11;;;;;;;5.80;4.38;;;;;;;;;;5021871;28;20422;-67
2023/12/08 08:29:36;;;;;;;10.63;5.22;;;;;;;;;;5020748;28;20496;-67
2023/12/08 08:32:02;;;;;;;3.85;3.53;;;;;;;;;;5020668;28;20041;-66
2023/12/08 08:34:29;;;;;;;5.90;3.92;;;;;;;;;;5021052;28;20046;-66
2023/12/08 08:36:55;;;;;;;6.28;4.18;;;;;;;;;;5020437;28;20038;-67
2023/12/08 08:39:20;;;;;;;4.82;3.40;;;;;;;;;;5018484;28;20041;-67
2023/12/08 08:41:46;;;;;;;6.78;3.58;;;;;;;;;;5020828;28;20049;-67
2023/12/08 08:44:11;;;;;;;6.47;3.72;;;;;;;;;;5022316;28;20049;-66
2023/12/08 08:46:40;;;;;;;6.50;3.95;;;;;;;;;;5020531;28;20117;-67
2023/12/08 08:49:05;;;;;;;4.80;3.80;;;;;;;;;;5019032;28;20144;-70
2023/12/08 08:51:31;;;;;;;4.20;3.40;;;;;;;;;;5019953;28;20169;-67
2023/12/08 08:53:56;;;;;;;5.32;2.90;;;;;;;;;;5020170;28;20778;-67
2023/12/08 08:56:22;;;;;;;4.32;3.05;;;;;;;;;;5020642;28;20065;-67
2023/12/08 08:58:47;;;;;;;4.70;3.15;;;;;;;;;;5020016;28;20087;-66
2023/12/08 09:01:13;;;;;;;2.88;2.63;;;;;;;;;;5019327;28;20049;-69
2023/12/08 09:03:38;;;;;;;3.50;2.88;;;;;;;;;;5019842;28;20049;-68
2023/12/08 09:06:04;;;;;;;3.30;2.88;;;;;;;;;;5020101;28;20084;-69
2023/12/08 09:08:29;;;;;;;5.07;3.03;;;;;;;;;;5019086;28;20041;-68
2023/12/08 09:10:55;;;;;;;3.60;2.78;;;;;;;;;;5019800;28;20054;-70
2023/12/08 09:13:23;;;;;;;4.95;2.95;;;;;;;;;;5018071;28;20057;-66
2023/12/08 09:15:48;;;;;;;3.97;2.50;;;;;;;;;;5003817;28;20543;-67
2023/12/08 09:18:15;;;;;;;2.80;2.53;;;;;;;;;;5019604;28;20160;-66
2023/12/08 09:20:41;;;;;;;6.53;2.92;;;;;;;;;;5019367;28;20542;-68
2023/12/08 09:23:06;;;;;;;4.93;3.10;;;;;;;;;;5018842;28;20041;-64
2023/12/08 09:25:32;;;;;;;3.67;3.05;;;;;;;;;;5019165;28;20574;-65
2023/12/08 09:27:57;;;;;;;3.63;3.00;;;;;;;;;;5020669;28;20128;-67
2023/12/08 09:30:23;;;;;;;4.18;3.38;;;;;;;;;;5021289;28;20044;-69
2023/12/08 09:32:50;;;;;;;4.72;3.50;;;;;;;;;;5021137;28;20771;-70
2023/12/08 09:35:17;;;;;;;5.05;3.63;;;;;;;;;;5020931;28;20122;-67
2023/12/08 09:37:43;;;;;;;5.63;3.38;;;;;;;;;;5019209;28;20041;-67
2023/12/08 09:40:10;;;;;;;4.57;3.42;;;;;;;;;;5023803;28;20650;-68
2023/12/08 09:42:42;;;;;;;9.02;4.43;;;;;;;;;;5018549;28;20519;-70
2023/12/08 09:45:11;;;;;;;7.82;5.38;;;;;;;;;;5023481;28;20122;-67
2023/12/08 09:47:39;;;;;;;10.00;4.63;;;;;;;;;;5018679;28;20056;-69
2023/12/08 09:50:09;;;;;;;5.43;4.10;;;;;;;;;;5024576;28;20420;-69
2023/12/08 09:52:35;;;;;;;7.07;4.55;;;;;;;;;;5018934;28;20648;-69
2023/12/08 09:55:01;;;;;;;5.47;4.20;;;;;;;;;;5018652;28;20462;-68
2023/12/08 09:57:29;;;;;;;6.45;4.65;;;;;;;;;;5019826;28;20049;-69
2023/12/08 09:59:59;;;;;;;11.90;5.53;;;;;;;;;;5020690;28;20128;-68
2023/12/08 10:02:25;;;;;;;9.55;5.75;;;;;;;;;;5019159;28;20132;-70
2023/12/08 10:04:51;;;;;;;6.60;4.95;;;;;;;;;;5020692;28;20076;-70
2023/12/08 10:07:17;;;;;;;6.93;4.40;;;;;;;;;;5018703;28;20077;-68
2023/12/08 10:09:43;;;;;;;8.35;4.90;;;;;;;;;;5022951;28;20088;-69
2023/12/08 10:12:08;;;;;;;8.50;5.15;;;;;;;;;;5018997;28;20041;-66
2023/12/08 10:14:34;;;;;;;12.15;6.35;;;;;;;;;;5019651;28;20063;-67
2023/12/08 10:17:00;;;;;;;16.00;7.75;;;;;;;;;;5019610;28;20095;-68
2023/12/08 10:19:25;;;;;;;13.93;8.75;;;;;;;;;;5017774;28;20057;-69
2023/12/08 10:22:01;;;;;;;13.25;6.60;;;;;;;;;;5019342;28;20052;-68
2023/12/08 10:24:30;;;;;;;10.23;5.22;;;;;;;;;;5020488;28;20064;-68
2023/12/08 10:27:00;;;;;;;7.15;4.60;;;;;;;;;;5021388;28;20045;-68
2023/12/08 10:29:33;;;;;;;8.25;5.53;;;;;;;;;;5019549;28;21151;-67
2023/12/08 10:31:58;;;;;;;7.22;4.78;;;;;;;;;;5021125;28;20049;-67
2023/12/08 10:34:25;;;;;;;8.82;4.70;;;;;;;;;;5019715;28;20411;-67
2023/12/08 10:36:52;;;;;;;6.65;4.68;;;;;;;;;;5018812;28;20156;-67
2023/12/08 10:39:18;;;;;;;6.60;4.47;;;;;;;;;;5015905;28;20079;-67
2023/12/08 10:41:43;;;;;;;6.85;5.07;;;;;;;;;;5019437;28;20487;-68
2023/12/08 10:44:11;;;;;;;6.00;3.97;;;;;;;;;;5020745;28;20792;-66
2023/12/08 10:46:37;;;;;;;5.55;4.65;;;;;;;;;;5019809;28;20080;-66
2023/12/08 10:49:03;;;;;;;10.25;5.70;;;;;;;;;;5049156;28;20075;-68
2023/12/08 10:51:30;;;;;;;9.45;5.68;;;;;;;;;;5056518;28;20044;-65
2023/12/08 10:53:55;;;;;;;12.73;7.68;;;;;;;;;;5026224;28;20088;-67
2023/12/08 10:56:21;;;;;;;15.07;7.90;;;;;;;;;;5016116;28;20453;-68
2023/12/08 10:58:53;;;;;;;11.23;7.00;;;;;;;;;;5038409;28;20645;-68
2023/12/08 11:01:19;;;;;;;15.63;9.43;;;;;;;;;;5043207;28;20040;-67
2023/12/08 11:03:47;;;;;;;18.58;9.18;;;;;;;;;;5050708;28;20056;-67
2023/12/08 11:06:23;;;;;;;12.85;7.10;;;;;;;;;;5054112;28;20052;-66
2023/12/08 11:08:54;;;;;;;24.23;10.57;;;;;;;;;;5050314;28;20091;-66
2023/12/08 11:11:23;;;;;;;10.70;7.03;;;;;;;;;;5042032;28;20165;-67
2023/12/08 11:13:53;;;;;;;17.80;8.45;;;;;;;;;;5042929;28;20082;-68
2023/12/08 11:16:44;;;;;;;17.38;7.93;;;;;;;;;;5030318;28;20665;-65
2023/12/08 11:19:11;;;;;;;10.43;6.15;;;;;;;;;;5021780;28;21209;-64
2023/12/08 11:21:36;;;;;;;10.85;6.80;;;;;;;;;;5051868;28;20048;-66
2023/12/08 11:24:05;;;;;;;16.08;8.65;;;;;;;;;;5056807;28;20055;-64
2023/12/08 11:27:16;;;;;;;15.57;8.25;;;;;;;;;;5050826;28;20049;-65
2023/12/08 11:30:00;;;;;;;17.95;10.82;;;;;;;;;;5035977;28;20041;-67
2023/12/08 11:32:41;;;;;;;12.95;8.90;;;;;;;;;;5051327;28;21012;-65
2023/12/08 11:35:12;;;;;;;14.52;9.02;;;;;;;;;;5044729;28;20041;-66
2023/12/08 11:37:38;;;;;;;16.83;8.00;;;;;;;;;;5054326;28;20049;-67
2023/12/08 11:40:11;;;;;;;12.65;7.97;;;;;;;;;;5049714;28;20044;-68
2023/12/08 11:42:37;;;;;;;11.20;6.72;;;;;;;;;;5050958;28;20051;-66
2023/12/08 11:45:03;;;;;;;10.77;7.25;;;;;;;;;;5041182;28;20495;-67
2023/12/08 11:47:30;;;;;;;11.98;6.68;;;;;;;;;;5020741;28;20072;-65
2023/12/08 11:49:56;;;;;;;12.70;6.28;;;;;;;;;;5031081;28;20049;-65
2023/12/08 11:52:27;;;;;;;9.15;5.03;;;;;;;;;;5055906;28;20055;-65
2023/12/08 11:55:16;;;;;;;9.40;5.40;;;;;;;;;;5042583;28;20171;-67
2023/12/08 11:57:59;;;;;;;9.18;4.72;;;;;;;;;;5057512;28;20058;-67
2023/12/08 12:00:26;;;;;;;7.60;4.88;;;;;;;;;;5058906;28;20040;-67
2023/12/08 12:02:54;;;;;;;10.40;6.07;;;;;;;;;;5059058;28;20269;-67
2023/12/08 12:05:20;;;;;;;10.25;5.47;;;;;;;;;;5057308;28;20054;-67
2023/12/08 12:07:49;;;;;;;7.82;5.22;;;;;;;;;;5053303;28;20445;-65
2023/12/08 12:10:18;;;;;;;7.05;4.82;;;;;;;;;;5038615;28;20495;-67
2023/12/08 12:13:12;;;;;;;6.80;4.30;;;;;;;;;;5038232;28;20114;-67
2023/12/08 12:15:40;;;;;;;6.40;4.57;;;;;;;;;;5030896;28;20057;-65
2023/12/08 12:18:06;;;;;;;6.25;4.63;;;;;;;;;;5020734;28;20045;-65
2023/12/08 12:20:38;;;;;;;6.65;4.60;;;;;;;;;;5020094;28;20516;-68
2023/12/08 12:23:04;;;;;;;8.80;5.00;;;;;;;;;;5021066;28;20150;-65
2023/12/08 12:25:30;;;;;;;5.03;4.38;;;;;;;;;;5021262;28;20057;-66
2023/12/08 12:27:55;;;;;;;9.57;5.32;;;;;;;;;;5021235;28;20041;-65
2023/12/08 12:30:22;;;;;;;8.80;5.50;;;;;;;;;;5019880;28;20045;-67
2023/12/08 12:32:48;;;;;;;6.88;5.20;;;;;;;;;;5020430;28;20638;-66
2023/12/08 12:35:14;;;;;;;6.63;4.53;;;;;;;;;;5019248;28;20038;-65
2023/12/08 12:37:40;;;;;;;10.05;5.50;;;;;;;;;;5018515;28;20052;-68
2023/12/08 12:40:10;;;;;;;9.55;5.93;;;;;;;;;;5019432;28;20553;-66
2023/12/08 12:42:40;;;;;;;9.77;5.55;;;;;;;;;;5021380;28;20617;-65
2023/12/08 12:45:06;;;;;;;9.73;6.05;;;;;;;;;;5017519;28;21052;-66
2023/12/08 12:47:32;;;;;;;9.00;5.47;;;;;;;;;;5037133;28;20055;-65
2023/12/08 12:50:07;;;;;;;6.93;4.90;;;;;;;;;;5037511;28;20044;-65
2023/12/08 12:52:36;;;;;;;7.82;5.22;;;;;;;;;;5037403;28;20080;-66
2023/12/08 12:55:03;;;;;;;7.03;5.15;;;;;;;;;;5036619;28;20037;-68
2023/12/08 12:57:44;;;;;;;8.43;5.53;;;;;;;;;;5030724;28;20128;-66
2023/12/08 13:00:11;;;;;;;9.02;5.78;;;;;;;;;;5034587;28;20037;-68
2023/12/08 13:02:38;;;;;;;10.75;5.80;;;;;;;;;;5035529;28;20063;-65
2023/12/08 13:05:07;;;;;;;9.45;5.43;;;;;;;;;;5035340;28;20132;-68
2023/12/08 13:07:42;;;;;;;8.80;5.80;;;;;;;;;;5051525;28;20118;-67
2023/12/08 13:10:07;;;;;;;7.97;5.43;;;;;;;;;;5035924;28;20517;-66
2023/12/08 13:12:34;;;;;;;7.43;4.70;;;;;;;;;;5034702;28;20049;-66
2023/12/08 13:15:00;;;;;;;7.90;4.82;;;;;;;;;;5035411;28;20148;-67
2023/12/08 13:17:26;;;;;;;7.75;4.90;;;;;;;;;;5036184;28;20567;-65
2023/12/08 13:19:53;;;;;;;11.25;5.70;;;;;;;;;;5035645;28;20044;-67
2023/12/08 13:22:20;;;;;;;14.65;5.90;;;;;;;;;;5034461;28;20052;-65
2023/12/08 13:24:49;;;;;;;11.80;5.35;;;;;;;;;;5011230;28;20062;-66
2023/12/08 13:27:15;;;;;;;6.40;5.35;;;;;;;;;;5014947;28;20570;-67
2023/12/08 13:29:40;;;;;;;10.82;5.32;;;;;;;;;;5017744;28;20073;-67
2023/12/08 13:32:06;;;;;;;10.82;5.95;;;;;;;;;;5016863;28;20176;-67
2023/12/08 13:34:31;;;;;;;12.35;6.90;;;;;;;;;;5018425;28;20045;-67
2023/12/08 13:36:57;;;;;;;9.68;6.20;;;;;;;;;;5017303;28;20037;-68
2023/12/08 13:39:22;;;;;;;10.05;6.72;;;;;;;;;;5016144;28;20173;-64
2023/12/08 13:41:48;;;;;;;12.18;6.30;;;;;;;;;;5016641;28;20068;-66
2023/12/08 13:44:13;;;;;;;8.65;5.97;;;;;;;;;;5019000;28;20128;-64
2023/12/08 13:46:39;;;;;;;10.13;6.03;;;;;;;;;;5015642;28;20050;-66
2023/12/08 13:49:04;;;;;;;10.77;6.45;;;;;;;;;;5017678;28;20116;-64
2023/12/08 13:51:31;;;;;;;7.88;6.00;;;;;;;;;;5018850;28;20585;-66
2023/12/08 13:53:57;;;;;;;10.27;5.85;;;;;;;;;;5018513;28;20080;-65
2023/12/08 13:56:22;;;;;;;8.98;5.22;;;;;;;;;;5017698;28;20080;-65
2023/12/08 13:58:48;;;;;;;10.02;5.38;;;;;;;;;;5018129;28;20045;-65
2023/12/08 14:01:14;;;;;;;12.10;6.07;;;;;;;;;;5015477;28;20049;-65
2023/12/08 14:03:39;;;;;;;11.90;5.60;;;;;;;;;;5016929;28;20046;-65
2023/12/08 14:06:05;;;;;;;11.95;5.68;;;;;;;;;;5015965;28;20099;-64
2023/12/08 14:08:32;;;;;;;9.68;5.35;;;;;;;;;;5017695;28;20037;-66
2023/12/08 14:10:57;;;;;;;7.82;5.18;;;;;;;;;;5016274;28;20048;-64
2023/12/08 14:13:23;;;;;;;7.65;5.78;;;;;;;;;;5019165;28;20049;-66
2023/12/08 14:15:48;;;;;;;9.10;6.07;;;;;;;;;;5016974;28;20073;-66
2023/12/08 14:18:14;;;;;;;8.38;5.60;;;;;;;;;;5018692;28;20046;-64
2023/12/08 14:20:39;;;;;;;8.82;5.47;;;;;;;;;;5017254;28;20084;-66
2023/12/08 14:23:04;;;;;;;7.63;5.40;;;;;;;;;;5017150;28;20903;-66
2023/12/08 14:25:30;;;;;;;8.65;5.63;;;;;;;;;;5016701;28;20072;-64
2023/12/08 14:27:55;;;;;;;12.07;5.82;;;;;;;;;;5018412;28;20036;-66
2023/12/08 14:30:20;;;;;;;9.60;5.32;;;;;;;;;;5018721;28;20051;-64
2023/12/08 14:32:46;;;;;;;10.00;5.60;;;;;;;;;;5016180;28;20049;-66
2023/12/08 14:35:12;;;;;;;9.32;5.50;;;;;;;;;;5020156;28;20080;-67